createdAt,value
2022-12-23T00:04:13.134Z,9.60
2022-12-23T00:11:20.258Z,9.60
2022-12-23T00:18:20.389Z,9.60
2022-12-23T00:25:40.027Z,9.60
2022-12-23T00:32:40.919Z,9.60
2022-12-23T00:40:05.872Z,9.60
2022-12-23T00:47:06.698Z,9.70
2022-12-23T00:54:07.596Z,9.70
2022-12-23T01:01:26.541Z,9.80
2022-12-23T01:08:27.560Z,9.80
2022-12-23T01:15:28.074Z,9.80
2022-12-23T01:22:28.478Z,9.80
2022-12-23T01:29:29.752Z,9.90
2022-12-23T01:36:30.344Z,9.90
2022-12-23T01:44:03.343Z,9.90
2022-12-23T01:51:08.671Z,9.80
2022-12-23T01:58:14.679Z,9.80
2022-12-23T02:05:16.926Z,9.80
2022-12-23T02:12:51.111Z,9.80
2022-12-23T02:19:54.240Z,9.80
2022-12-23T02:27:43.518Z,9.80
2022-12-23T02:34:56.483Z,9.80
2022-12-23T02:42:05.505Z,9.80
2022-12-23T02:49:14.215Z,9.90
2022-12-23T02:56:15.564Z,9.90
2022-12-23T03:03:17.108Z,9.90
2022-12-23T03:10:39.684Z,9.90
2022-12-23T03:18:08.811Z,10.00
2022-12-23T03:25:23.340Z,10.00
2022-12-23T03:32:26.194Z,10.10
2022-12-23T03:39:32.177Z,10.20
2022-12-23T03:46:39.919Z,10.20
2022-12-23T03:54:18.435Z,10.20
2022-12-23T04:01:27.321Z,10.10
2022-12-23T04:08:34.932Z,10.10
2022-12-23T04:15:41.029Z,10.10
2022-12-23T04:22:43.425Z,10.00
2022-12-23T04:29:44.207Z,10.00
2022-12-23T04:36:44.451Z,10.00
2022-12-23T04:43:49.349Z,10.10
2022-12-23T04:50:52.914Z,10.10
2022-12-23T04:57:53.297Z,10.10
2022-12-23T05:04:53.701Z,10.20
2022-12-23T05:11:54.540Z,10.20
2022-12-23T05:18:54.643Z,10.20
2022-12-23T05:25:55.059Z,10.20
2022-12-23T05:32:56.619Z,10.20
2022-12-23T05:39:57.100Z,10.20
2022-12-23T05:46:57.668Z,10.10
2022-12-23T05:53:58.064Z,10.10
2022-12-23T06:00:58.451Z,10.10
2022-12-23T06:07:58.798Z,10.10
2022-12-23T06:14:59.129Z,10.00
2022-12-23T06:21:59.526Z,10.00
2022-12-23T06:29:00.059Z,10.00
2022-12-23T06:36:00.511Z,10.00
2022-12-23T06:43:01.226Z,10.10
2022-12-23T06:50:01.674Z,10.10
2022-12-23T06:57:02.129Z,10.10
2022-12-23T07:04:02.966Z,10.20
2022-12-23T07:11:04.903Z,10.30
2022-12-23T07:18:05.743Z,10.20
2022-12-23T07:25:06.723Z,10.30
2022-12-23T07:32:07.176Z,10.20
2022-12-23T07:39:07.606Z,10.20
2022-12-23T07:46:09.123Z,10.20
2022-12-23T07:53:09.426Z,10.20
2022-12-23T08:00:14.022Z,10.20
2022-12-23T08:07:14.082Z,10.20
2022-12-23T08:14:14.365Z,10.20
2022-12-23T08:21:19.031Z,10.20
2022-12-23T08:28:19.279Z,10.10
2022-12-23T08:35:19.691Z,10.20
2022-12-23T08:42:20.152Z,10.20
2022-12-23T08:49:20.899Z,10.20
2022-12-23T08:56:22.917Z,10.20
2022-12-23T09:03:23.106Z,10.20
2022-12-23T09:10:23.675Z,10.20
2022-12-23T09:17:24.060Z,10.20
2022-12-23T09:24:24.596Z,10.30
2022-12-23T09:31:30.661Z,10.30
2022-12-23T09:38:36.003Z,10.30
2022-12-23T09:45:40.517Z,10.30
2022-12-23T09:53:04.017Z,10.30
2022-12-23T10:00:16.655Z,10.40
2022-12-23T10:07:48.132Z,10.40
2022-12-23T10:14:52.505Z,10.50
2022-12-23T10:22:02.158Z,10.50
2022-12-23T10:29:19.471Z,10.50
2022-12-23T10:36:32.632Z,10.50
2022-12-23T10:43:54.991Z,10.60
2022-12-23T10:51:01.259Z,10.60
2022-12-23T10:58:17.521Z,10.60
2022-12-23T11:05:25.769Z,10.60
2022-12-23T11:12:43.849Z,10.60
2022-12-23T11:19:44.092Z,10.60
2022-12-23T11:26:47.411Z,10.60
2022-12-23T11:34:01.061Z,10.60
2022-12-23T11:41:02.966Z,10.50
2022-12-23T11:48:05.708Z,10.60
2022-12-23T11:55:06.895Z,10.50
2022-12-23T12:02:19.739Z,10.40
2022-12-23T12:09:20.693Z,10.40
2022-12-23T12:16:43.034Z,10.30
2022-12-23T12:23:45.828Z,10.20
2022-12-23T12:31:01.373Z,10.20
2022-12-23T12:38:18.804Z,10.10
2022-12-23T12:45:31.104Z,10.10
2022-12-23T12:52:37.735Z,10.00
2022-12-23T12:59:39.616Z,9.90
2022-12-23T13:06:51.609Z,9.90
2022-12-23T13:14:27.099Z,9.80
2022-12-23T13:21:42.566Z,9.80
2022-12-23T13:28:52.347Z,9.80
2022-12-23T13:36:05.436Z,9.70
2022-12-23T13:43:15.970Z,9.70
2022-12-23T13:50:33.848Z,9.60
2022-12-23T13:57:47.967Z,9.60
2022-12-23T14:04:59.329Z,9.50
2022-12-23T14:12:11.897Z,9.60
2022-12-23T14:19:24.389Z,9.60
2022-12-23T14:26:56.024Z,9.60
2022-12-23T14:34:04.239Z,9.70
2022-12-23T14:41:37.261Z,9.70
2022-12-23T14:49:29.762Z,9.80
2022-12-23T14:56:38.726Z,10.00
2022-12-23T15:03:46.826Z,10.00
2022-12-23T15:10:47.091Z,10.20
2022-12-23T15:17:48.340Z,10.30
2022-12-23T15:24:48.563Z,10.40
2022-12-23T15:31:53.503Z,10.50
2022-12-23T15:38:54.862Z,10.60
2022-12-23T15:46:04.507Z,10.70
2022-12-23T15:53:08.008Z,10.80
2022-12-23T16:00:22.188Z,10.90
2022-12-23T16:07:39.998Z,10.90
2022-12-23T16:14:41.857Z,11.00
2022-12-23T16:21:41.923Z,11.10
2022-12-23T16:28:46.960Z,11.20
2022-12-23T16:35:47.573Z,11.30
2022-12-23T16:42:47.681Z,11.30
2022-12-23T16:49:48.625Z,11.80
2022-12-23T16:56:49.953Z,12.30
2022-12-23T17:03:51.008Z,12.50
2022-12-23T17:10:51.764Z,12.60
2022-12-23T17:17:53.059Z,12.70
2022-12-23T17:24:53.124Z,12.60
2022-12-23T17:31:54.071Z,12.50
2022-12-23T17:38:55.033Z,12.40
2022-12-23T17:45:55.800Z,12.40
2022-12-23T17:52:56.517Z,12.40
2022-12-23T17:59:56.896Z,12.40
2022-12-23T18:06:57.426Z,12.40
2022-12-23T18:13:57.909Z,12.40
2022-12-23T18:20:59.283Z,12.40
2022-12-23T18:27:59.309Z,12.40
2022-12-23T18:34:59.963Z,12.30
2022-12-23T18:42:00.468Z,12.30
2022-12-23T18:49:00.912Z,12.20
2022-12-23T18:56:01.291Z,12.20
2022-12-23T19:03:01.935Z,12.20
2022-12-23T19:10:05.325Z,12.30
2022-12-23T19:17:05.627Z,12.40
2022-12-23T19:24:06.157Z,12.40
2022-12-23T19:31:08.431Z,12.40
2022-12-23T19:38:08.855Z,12.40
2022-12-23T19:45:10.806Z,12.30
2022-12-23T19:52:11.172Z,12.30
2022-12-23T19:59:12.126Z,12.20
2022-12-23T20:06:33.000Z,12.20
2022-12-23T20:13:34.135Z,12.20
2022-12-23T20:20:36.085Z,12.20
2022-12-23T20:27:38.618Z,12.20
2022-12-23T20:34:40.244Z,12.20
2022-12-23T20:41:40.830Z,12.20
2022-12-23T20:48:41.817Z,12.20
2022-12-23T20:55:42.030Z,12.20
2022-12-23T21:02:42.363Z,12.30
2022-12-23T21:09:42.729Z,12.30
2022-12-23T21:16:43.377Z,12.30
2022-12-23T21:23:43.828Z,12.20
2022-12-23T21:30:44.373Z,12.10
2022-12-23T21:37:44.607Z,12.10
2022-12-23T21:44:45.115Z,12.00
2022-12-23T21:51:45.906Z,12.00
2022-12-23T21:58:46.694Z,12.00
2022-12-23T22:05:47.064Z,11.90
2022-12-23T22:12:47.622Z,11.90
2022-12-23T22:19:48.126Z,11.80
2022-12-23T22:26:48.441Z,11.80
2022-12-23T22:33:48.945Z,11.80
2022-12-23T22:40:51.082Z,11.90
2022-12-23T22:47:51.524Z,11.80
2022-12-23T22:54:51.938Z,11.80
2022-12-23T23:01:53.071Z,11.80
2022-12-23T23:08:54.676Z,11.80
2022-12-23T23:15:55.999Z,11.70
2022-12-23T23:22:56.417Z,11.70
2022-12-23T23:29:56.954Z,11.70
2022-12-23T23:36:57.877Z,11.60
2022-12-23T23:43:57.966Z,11.60
2022-12-23T23:51:06.142Z,11.60
2022-12-23T23:58:07.574Z,11.50
